Time;durP1;ratioP1;P1;durP2;ratioP2;P2;SDS_P1;SDS_P2;PMS_P1;PMS_P2;Temp;Humidity;BMP_temperature;BMP_pressure;BME280_temperature;BME280_humidity;BME280_pressure;Samples;Min_cycle;Max_cycle;Signal;HPM_P1;HPM_P2
2022/03/24 00:01:29;;;;;;;14.40;9.13;;;18.40;50.00;;;;;;4968180;28;99261;-70
2022/03/24 00:03:54;;;;;;;12.65;9.18;;;18.40;50.00;;;;;;4967948;28;99133;-71
2022/03/24 00:06:20;;;;;;;14.75;9.38;;;18.40;49.90;;;;;;4967548;28;100041;-71
2022/03/24 00:08:46;;;;;;;11.00;9.05;;;18.40;49.90;;;;;;4967685;28;98808;-71
2022/03/24 00:11:11;;;;;;;11.73;9.27;;;18.40;49.90;;;;;;4968013;28;99121;-71
2022/03/24 00:13:37;;;;;;;15.07;9.23;;;18.40;49.90;;;;;;4969329;28;98147;-71
2022/03/24 00:16:03;;;;;;;11.75;9.50;;;18.40;49.90;;;;;;4968145;28;100469;-71
2022/03/24 00:18:32;;;;;;;10.70;9.00;;;18.30;49.80;;;;;;4968361;28;99965;-71
2022/03/24 00:21:01;;;;;;;12.43;8.98;;;18.40;49.80;;;;;;4967374;28;99440;-70
2022/03/24 00:23:29;;;;;;;14.32;9.38;;;18.30;49.70;;;;;;4968798;28;100014;-70
2022/03/24 00:25:54;;;;;;;12.00;9.10;;;18.30;49.80;;;;;;4967454;28;99135;-71
2022/03/24 00:28:20;;;;;;;13.20;8.35;;;18.30;49.70;;;;;;4968017;28;104603;-71
2022/03/24 00:30:46;;;;;;;14.30;9.52;;;18.30;49.80;;;;;;4968345;28;98702;-70
2022/03/24 00:33:12;;;;;;;13.07;9.30;;;18.30;49.60;;;;;;4967956;28;98632;-70
2022/03/24 00:35:38;;;;;;;12.68;9.45;;;18.30;49.70;;;;;;4967078;28;100259;-72
2022/03/24 00:38:05;;;;;;;13.93;9.65;;;18.30;49.60;;;;;;4968037;28;101116;-71
2022/03/24 00:40:30;;;;;;;14.40;9.25;;;18.30;49.60;;;;;;4968876;28;98718;-71
2022/03/24 00:42:57;;;;;;;12.07;9.02;;;18.30;49.60;;;;;;4967859;28;98759;-71
2022/03/24 00:45:23;;;;;;;12.75;9.02;;;18.30;49.50;;;;;;4967203;28;100916;-70
2022/03/24 00:47:49;;;;;;;14.48;9.18;;;18.30;49.60;;;;;;4967233;28;99559;-71
2022/03/24 00:50:15;;;;;;;12.63;8.95;;;18.30;49.60;;;;;;4968794;28;99143;-71
2022/03/24 00:52:41;;;;;;;12.80;9.30;;;18.30;49.50;;;;;;4967031;28;98707;-71
2022/03/24 00:55:15;;;;;;;13.18;8.93;;;18.30;49.50;;;;;;4966449;28;100563;-71
2022/03/24 00:57:43;;;;;;;11.93;8.60;;;18.30;49.50;;;;;;4967263;28;99111;-71
2022/03/24 01:00:15;;;;;;;12.35;9.05;;;18.30;49.50;;;;;;4968234;28;98989;-71
2022/03/24 01:02:42;;;;;;;11.68;8.75;;;18.20;49.50;;;;;;4967658;28;98185;-71
2022/03/24 01:05:08;;;;;;;12.00;8.98;;;18.20;49.40;;;;;;4967637;28;99042;-70
2022/03/24 01:07:35;;;;;;;12.60;9.05;;;18.30;49.50;;;;;;4967185;28;99342;-71
2022/03/24 01:10:03;;;;;;;10.90;9.07;;;18.20;49.40;;;;;;4967653;28;99240;-71
2022/03/24 01:12:29;;;;;;;12.73;9.05;;;18.20;49.40;;;;;;4968126;28;98964;-71
2022/03/24 01:14:56;;;;;;;11.73;9.13;;;18.20;49.40;;;;;;4967923;28;99166;-71
2022/03/24 01:17:23;;;;;;;12.73;9.13;;;18.20;49.40;;;;;;4967365;28;99026;-70
2022/03/24 01:19:49;;;;;;;11.38;8.48;;;18.20;49.30;;;;;;4969019;28;98952;-71
2022/03/24 01:22:15;;;;;;;11.68;8.10;;;18.20;49.30;;;;;;4972463;28;98946;-70
2022/03/24 01:24:41;;;;;;;12.35;8.93;;;18.20;49.30;;;;;;4949766;28;103104;-71
2022/03/24 01:27:07;;;;;;;13.27;8.93;;;18.20;49.30;;;;;;4967958;28;99958;-71
2022/03/24 01:29:33;;;;;;;12.65;8.88;;;18.20;49.30;;;;;;4966421;28;98573;-70
2022/03/24 01:31:59;;;;;;;10.38;8.40;;;18.20;49.30;;;;;;4968026;28;99089;-71
2022/03/24 01:34:26;;;;;;;11.10;8.85;;;18.10;49.30;;;;;;4965319;28;101197;-70
2022/03/24 01:36:52;;;;;;;12.90;9.32;;;18.20;49.30;;;;;;4967675;28;99262;-70
2022/03/24 01:39:17;;;;;;;14.35;8.88;;;18.20;49.30;;;;;;4966670;28;98734;-70
2022/03/24 01:41:47;;;;;;;12.23;8.80;;;18.10;49.30;;;;;;4967692;28;98665;-70
2022/03/24 01:44:15;;;;;;;14.15;9.10;;;18.10;49.20;;;;;;4965503;28;100174;-71
2022/03/24 01:46:59;;;;;;;11.27;8.65;;;18.10;49.20;;;;;;4967606;28;100323;-71
2022/03/24 01:49:31;;;;;;;10.75;8.93;;;18.10;49.10;;;;;;4966608;28;99191;-71
2022/03/24 01:51:57;;;;;;;11.68;8.48;;;18.10;49.20;;;;;;4968174;28;98130;-71
2022/03/24 01:54:25;;;;;;;14.10;8.95;;;18.10;49.20;;;;;;4966086;28;99756;-71
2022/03/24 01:56:52;;;;;;;15.07;8.75;;;18.10;49.30;;;;;;4967544;28;98760;-70
2022/03/24 01:59:19;;;;;;;10.70;8.55;;;18.10;49.20;;;;;;4966841;28;99871;-71
2022/03/24 02:01:46;;;;;;;14.82;8.88;;;18.10;49.10;;;;;;4967189;28;98521;-71
2022/03/24 02:04:12;;;;;;;14.20;9.10;;;18.10;49.20;;;;;;4967709;28;99493;-71
2022/03/24 02:06:37;;;;;;;13.40;9.82;;;18.10;49.10;;;;;;4969436;28;100269;-71
2022/03/24 02:09:04;;;;;;;11.13;8.68;;;18.10;49.10;;;;;;4970330;28;99154;-71
2022/03/24 02:11:36;;;;;;;11.07;8.90;;;18.10;49.10;;;;;;4969988;28;100042;-71
2022/03/24 02:14:03;;;;;;;13.68;9.10;;;18.10;49.10;;;;;;4969237;28;99271;-71
2022/03/24 02:16:38;;;;;;;11.20;8.20;;;18.00;49.00;;;;;;4969747;28;99432;-71
2022/03/24 02:19:21;;;;;;;12.70;9.05;;;18.00;49.00;;;;;;4970188;28;99116;-71
2022/03/24 02:21:48;;;;;;;10.85;8.60;;;18.00;49.00;;;;;;4970109;28;98683;-71
2022/03/24 02:24:17;;;;;;;14.05;9.02;;;18.00;49.00;;;;;;4969339;28;99922;-71
2022/03/24 02:26:45;;;;;;;11.85;8.93;;;18.00;49.10;;;;;;4969482;28;100630;-71
2022/03/24 02:29:12;;;;;;;11.20;8.75;;;18.00;49.00;;;;;;4970901;28;98882;-71
2022/03/24 02:31:40;;;;;;;11.23;8.18;;;18.00;49.10;;;;;;4970127;28;98941;-70
2022/03/24 02:36:53;;;;;;;11.93;8.50;;;18.00;49.00;;;;;;4968205;28;98690;-71
2022/03/24 02:39:19;;;;;;;11.48;8.48;;;18.00;49.00;;;;;;4969295;28;98609;-71
2022/03/24 02:41:53;;;;;;;12.57;8.63;;;18.00;48.90;;;;;;4969783;28;98342;-71
2022/03/24 02:44:24;;;;;;;10.80;8.60;;;18.00;48.90;;;;;;4969325;28;99358;-70
2022/03/24 02:46:51;;;;;;;11.23;8.57;;;18.00;48.90;;;;;;4968587;28;99131;-71
2022/03/24 02:49:18;;;;;;;11.32;8.68;;;18.00;48.90;;;;;;4968529;28;99333;-72
2022/03/24 02:51:44;;;;;;;12.30;9.40;;;18.00;48.90;;;;;;4970964;28;98648;-72
2022/03/24 02:54:11;;;;;;;11.43;8.25;;;18.00;48.90;;;;;;4968796;28;101161;-71
2022/03/24 02:56:38;;;;;;;14.05;8.50;;;18.00;48.80;;;;;;4968858;28;98698;-71
2022/03/24 02:59:06;;;;;;;11.75;8.77;;;18.00;48.80;;;;;;4968784;28;100375;-71
2022/03/24 03:01:33;;;;;;;12.98;8.80;;;18.00;48.90;;;;;;4969301;28;99100;-71
2022/03/24 03:03:59;;;;;;;11.73;8.63;;;18.00;48.80;;;;;;4969345;28;100889;-71
2022/03/24 03:06:25;;;;;;;13.18;9.20;;;17.90;49.70;;;;;;4969923;28;99817;-71
2022/03/24 03:08:51;;;;;;;11.32;9.02;;;17.90;48.70;;;;;;4968544;28;98649;-71
2022/03/24 03:11:20;;;;;;;11.77;8.88;;;17.90;48.70;;;;;;4969270;28;98736;-71
2022/03/24 03:13:47;;;;;;;11.57;8.52;;;17.90;48.70;;;;;;4967999;28;99571;-71
2022/03/24 03:16:13;;;;;;;9.93;8.93;;;17.90;48.70;;;;;;4967727;28;100826;-71
2022/03/24 03:18:41;;;;;;;11.57;8.90;;;17.90;48.70;;;;;;4969020;28;98587;-71
2022/03/24 03:21:10;;;;;;;11.32;8.90;;;17.90;48.70;;;;;;4968962;28;98634;-71
2022/03/24 03:23:39;;;;;;;11.20;8.98;;;17.90;48.70;;;;;;4968319;28;99084;-71
2022/03/24 03:26:17;;;;;;;13.65;8.85;;;17.90;48.70;;;;;;4967601;28;99379;-71
2022/03/24 03:28:43;;;;;;;14.05;9.65;;;17.90;48.70;;;;;;4968147;28;98740;-70
2022/03/24 03:31:09;;;;;;;12.48;9.15;;;17.90;48.70;;;;;;4968588;28;98290;-71
2022/03/24 03:33:36;;;;;;;12.65;8.95;;;17.90;48.70;;;;;;4969203;28;99719;-71
2022/03/24 03:36:03;;;;;;;13.75;8.77;;;17.90;48.70;;;;;;4967883;28;99227;-70
2022/03/24 03:38:30;;;;;;;11.13;8.55;;;17.90;48.70;;;;;;4968810;28;99708;-70
2022/03/24 03:40:56;;;;;;;13.43;9.43;;;17.80;48.60;;;;;;4968516;28;98850;-70
2022/03/24 03:43:23;;;;;;;11.35;9.00;;;17.90;48.70;;;;;;4967343;28;99115;-70
2022/03/24 03:45:49;;;;;;;13.63;9.40;;;17.80;48.50;;;;;;4968024;28;100532;-70
2022/03/24 03:48:15;;;;;;;11.57;8.73;;;17.80;48.50;;;;;;4969434;28;99189;-72
2022/03/24 03:50:41;;;;;;;12.52;9.43;;;17.80;48.60;;;;;;4968925;28;98622;-70
2022/03/24 03:53:08;;;;;;;12.50;8.77;;;17.80;48.50;;;;;;4967685;28;99563;-70
2022/03/24 03:55:35;;;;;;;13.30;10.02;;;17.80;48.50;;;;;;4968810;28;100001;-71
2022/03/24 03:58:02;;;;;;;12.73;9.05;;;17.80;48.50;;;;;;4967403;28;98589;-70
2022/03/24 04:03:13;;;;;;;12.68;9.27;;;17.80;48.60;;;;;;4967390;28;99802;-70
2022/03/24 04:05:39;;;;;;;11.75;9.55;;;17.80;48.50;;;;;;4968289;28;99385;-70
2022/03/24 04:08:09;;;;;;;10.65;9.52;;;17.80;48.50;;;;;;4968805;28;99133;-70
2022/03/24 04:10:35;;;;;;;10.90;9.32;;;17.80;48.50;;;;;;4968834;28;98919;-70
2022/03/24 04:13:00;;;;;;;13.13;9.43;;;17.80;48.50;;;;;;4968017;28;99616;-70
2022/03/24 04:15:26;;;;;;;10.95;9.13;;;17.80;48.50;;;;;;4967382;28;99415;-71
2022/03/24 04:17:52;;;;;;;12.68;9.95;;;17.80;48.50;;;;;;4968372;28;98536;-71
2022/03/24 04:20:21;;;;;;;13.40;9.85;;;17.80;48.50;;;;;;4967071;28;98274;-70
2022/03/24 04:22:48;;;;;;;11.95;8.93;;;17.80;48.40;;;;;;4967989;28;101286;-70
2022/03/24 04:25:15;;;;;;;11.77;9.63;;;17.70;48.50;;;;;;4967505;28;100292;-71
2022/03/24 04:27:41;;;;;;;11.18;8.68;;;17.80;48.50;;;;;;4967625;28;99559;-70
2022/03/24 04:30:07;;;;;;;13.77;9.98;;;17.80;48.50;;;;;;4967890;28;98598;-70
2022/03/24 04:32:33;;;;;;;13.48;9.32;;;17.70;48.40;;;;;;4967853;28;99217;-71
2022/03/24 04:34:59;;;;;;;11.07;8.95;;;17.70;48.40;;;;;;4968588;28;98903;-70
2022/03/24 04:37:25;;;;;;;12.38;9.55;;;17.70;48.40;;;;;;4968802;28;99022;-71
2022/03/24 04:39:51;;;;;;;12.32;9.50;;;17.70;48.40;;;;;;4968161;28;98699;-70
2022/03/24 04:42:17;;;;;;;11.52;9.15;;;17.70;48.30;;;;;;4968415;28;99180;-70
2022/03/24 04:44:42;;;;;;;11.80;9.30;;;17.70;48.40;;;;;;4968012;28;99020;-70
2022/03/24 04:47:09;;;;;;;13.00;10.18;;;17.70;48.30;;;;;;4968689;28;99400;-71
2022/03/24 04:49:35;;;;;;;12.48;9.93;;;17.70;48.40;;;;;;4967117;28;99253;-71
2022/03/24 04:52:03;;;;;;;13.07;9.57;;;17.70;48.40;;;;;;4966589;28;100348;-70
2022/03/24 04:54:29;;;;;;;12.07;9.50;;;17.70;48.30;;;;;;4967755;28;101632;-71
2022/03/24 04:56:57;;;;;;;11.60;9.52;;;17.70;48.30;;;;;;4967381;28;99098;-71
2022/03/24 04:59:22;;;;;;;11.13;9.05;;;17.70;48.40;;;;;;4967936;28;98875;-70
2022/03/24 05:01:48;;;;;;;12.10;9.48;;;17.70;48.30;;;;;;4966954;28;100251;-70
2022/03/24 05:04:15;;;;;;;12.18;9.60;;;17.60;48.20;;;;;;4967565;28;99043;-70
2022/03/24 05:06:41;;;;;;;11.10;9.18;;;17.60;48.30;;;;;;4967349;28;99069;-70
2022/03/24 05:09:07;;;;;;;10.70;9.43;;;17.70;48.40;;;;;;4968659;28;99304;-70
2022/03/24 05:11:32;;;;;;;13.25;9.35;;;17.60;48.30;;;;;;4967249;28;99590;-71
2022/03/24 05:13:58;;;;;;;11.45;10.10;;;17.60;48.20;;;;;;4967480;28;104524;-71
2022/03/24 06:20:14;;;;;;;13.13;9.77;;;18.20;47.50;;;;;;3708489;22;101477;-69
2022/03/24 06:22:51;;;;;;;13.90;9.82;;;18.30;47.40;;;;;;4970363;28;99324;-69
2022/03/24 06:25:18;;;;;;;11.55;9.50;;;18.40;47.10;;;;;;4970555;28;99034;-69
2022/03/24 06:27:45;;;;;;;14.65;9.60;;;18.50;47.00;;;;;;4969974;28;99488;-69
2022/03/24 06:30:11;;;;;;;13.57;8.93;;;18.60;47.30;;;;;;4969805;28;100920;-70
2022/03/24 06:32:38;;;;;;;12.65;9.50;;;18.60;46.90;;;;;;4970461;28;100056;-70
2022/03/24 06:35:05;;;;;;;10.45;9.30;;;18.60;46.90;;;;;;4970686;28;98544;-70
2022/03/24 06:37:39;;;;;;;13.10;9.70;;;18.60;47.20;;;;;;4970473;28;98638;-69
2022/03/24 06:40:08;;;;;;;12.38;9.70;;;18.70;47.20;;;;;;4969458;28;101512;-70
2022/03/24 06:42:34;;;;;;;14.95;8.98;;;18.70;47.60;;;;;;4969296;28;104307;-69
2022/03/24 06:44:59;;;;;;;11.82;9.02;;;18.70;47.60;;;;;;4970927;28;99031;-69
2022/03/24 06:47:25;;;;;;;13.50;9.95;;;18.70;47.30;;;;;;4970590;28;98915;-70
2022/03/24 06:49:51;;;;;;;12.57;9.63;;;18.70;47.30;;;;;;4970072;28;100118;-70
2022/03/24 06:52:16;;;;;;;15.68;9.13;;;18.70;47.30;;;;;;4969457;28;99305;-70
2022/03/24 06:54:42;;;;;;;13.35;10.15;;;18.60;47.30;;;;;;4969722;28;99163;-70
2022/03/24 06:57:08;;;;;;;13.40;9.27;;;18.60;47.30;;;;;;4970711;28;98218;-69
2022/03/24 06:59:34;;;;;;;13.75;9.80;;;18.60;47.30;;;;;;4969207;28;99741;-70
2022/03/24 07:02:02;;;;;;;13.43;9.30;;;18.60;47.40;;;;;;4968484;28;102730;-70
2022/03/24 07:04:28;;;;;;;11.40;9.55;;;18.50;47.50;;;;;;4968861;28;99452;-70
2022/03/24 07:06:53;;;;;;;10.80;9.15;;;18.50;47.60;;;;;;4969764;28;99013;-69
2022/03/24 07:09:19;;;;;;;15.50;9.82;;;18.50;47.70;;;;;;4968501;28;100184;-69
2022/03/24 07:11:44;;;;;;;13.13;9.80;;;18.50;48.10;;;;;;4969741;28;100173;-75
2022/03/24 07:14:10;;;;;;;31.55;10.30;;;18.60;48.70;;;;;;4951360;28;98672;-70
2022/03/24 07:16:36;;;;;;;17.02;9.60;;;18.60;48.60;;;;;;4967840;28;98578;-71
2022/03/24 07:19:03;;;;;;;16.77;9.30;;;18.60;48.30;;;;;;4968176;28;100139;-70
2022/03/24 07:21:29;;;;;;;13.68;10.35;;;18.60;48.30;;;;;;4967555;28;100032;-70
2022/03/24 07:23:55;;;;;;;17.85;10.00;;;18.60;48.20;;;;;;4968695;28;99015;-70
2022/03/24 07:26:21;;;;;;;19.02;9.80;;;18.50;48.20;;;;;;4969053;28;99020;-70
2022/03/24 07:28:48;;;;;;;15.05;9.90;;;18.50;48.30;;;;;;4967895;28;115274;-70
2022/03/24 07:31:16;;;;;;;15.50;10.30;;;18.50;48.30;;;;;;4969767;28;101278;-70
2022/03/24 07:33:46;;;;;;;17.88;9.82;;;18.40;48.20;;;;;;4968187;28;98955;-69
2022/03/24 07:36:13;;;;;;;19.40;9.82;;;18.40;48.20;;;;;;4969356;28;99109;-70
2022/03/24 07:38:39;;;;;;;14.75;10.63;;;18.40;48.30;;;;;;4968721;28;99181;-70
2022/03/24 07:41:06;;;;;;;13.63;9.88;;;18.40;48.20;;;;;;4968363;28;99131;-70
2022/03/24 07:43:32;;;;;;;15.25;10.48;;;18.40;48.30;;;;;;4967964;28;98663;-70
2022/03/24 07:45:58;;;;;;;15.35;10.18;;;18.30;48.30;;;;;;4969158;28;98272;-70
2022/03/24 07:48:27;;;;;;;15.10;10.40;;;18.30;48.30;;;;;;4967234;28;105181;-70
2022/03/24 07:50:55;;;;;;;14.43;10.70;;;18.30;48.30;;;;;;4968677;28;99112;-70
2022/03/24 07:53:49;;;;;;;17.90;11.05;;;18.30;48.30;;;;;;4966698;28;99873;-70
2022/03/24 07:56:16;;;;;;;17.85;11.35;;;18.30;48.30;;;;;;4968072;28;99145;-71
2022/03/24 07:58:42;;;;;;;13.30;10.85;;;18.30;48.40;;;;;;4968369;28;100347;-69
2022/03/24 08:01:10;;;;;;;18.33;11.95;;;18.30;48.40;;;;;;4967334;28;99767;-69
2022/03/24 08:03:36;;;;;;;14.23;11.43;;;18.20;48.30;;;;;;4969125;28;98548;-69
2022/03/24 08:06:02;;;;;;;15.48;11.48;;;18.20;48.40;;;;;;4968448;28;98532;-69
2022/03/24 08:08:27;;;;;;;19.00;11.55;;;18.20;48.50;;;;;;4967260;28;100191;-68
2022/03/24 08:10:54;;;;;;;14.07;12.35;;;18.20;48.40;;;;;;4968184;28;98625;-69
2022/03/24 08:13:21;;;;;;;18.75;12.30;;;18.20;48.40;;;;;;4968180;28;98785;-68
2022/03/24 08:15:49;;;;;;;16.30;12.70;;;18.20;48.40;;;;;;4968581;28;99063;-69
2022/03/24 08:18:17;;;;;;;14.73;12.43;;;18.20;48.40;;;;;;4967424;28;100195;-69
2022/03/24 08:20:47;;;;;;;15.30;12.18;;;18.20;48.40;;;;;;4967001;28;101177;-70
2022/03/24 08:23:13;;;;;;;15.15;12.43;;;18.20;48.50;;;;;;4969411;28;98687;-69
2022/03/24 08:26:05;;;;;;;15.80;12.52;;;18.20;48.50;;;;;;4969838;28;98525;-68
2022/03/24 08:28:31;;;;;;;17.95;12.77;;;18.20;48.40;;;;;;4971890;28;99898;-69
2022/03/24 08:30:57;;;;;;;16.13;12.20;;;18.10;48.50;;;;;;4968502;28;100602;-69
2022/03/24 08:33:22;;;;;;;17.90;12.45;;;18.20;48.50;;;;;;4968362;28;98921;-69
2022/03/24 08:35:48;;;;;;;17.90;14.00;;;18.10;48.60;;;;;;4968812;28;98310;-69
2022/03/24 08:38:13;;;;;;;18.08;12.73;;;18.10;48.60;;;;;;4967119;28;100248;-68
2022/03/24 08:40:39;;;;;;;19.05;13.18;;;18.10;48.50;;;;;;4967194;28;109360;-68
2022/03/24 08:43:05;;;;;;;16.83;13.18;;;18.10;48.60;;;;;;4967453;28;99821;-68
2022/03/24 08:45:31;;;;;;;17.15;12.60;;;18.10;48.50;;;;;;4967979;28;99075;-69
2022/03/24 08:47:57;;;;;;;16.73;13.32;;;18.10;48.50;;;;;;4967570;28;99039;-68
2022/03/24 08:50:23;;;;;;;18.10;13.00;;;18.10;48.50;;;;;;4966360;28;100174;-69
2022/03/24 08:52:49;;;;;;;16.60;13.50;;;18.10;48.60;;;;;;4968113;28;98720;-69
2022/03/24 08:55:17;;;;;;;17.98;13.82;;;18.10;48.60;;;;;;4967606;28;100953;-69
2022/03/24 08:57:43;;;;;;;15.80;13.57;;;18.10;48.60;;;;;;4966958;28;100322;-68
2022/03/24 09:00:15;;;;;;;15.48;13.18;;;18.10;48.50;;;;;;4967004;28;99877;-69
2022/03/24 09:02:43;;;;;;;18.50;13.00;;;18.10;48.50;;;;;;4967061;28;98865;-69
2022/03/24 09:05:09;;;;;;;21.33;14.52;;;18.10;48.60;;;;;;4967674;28;99087;-69
2022/03/24 09:07:36;;;;;;;16.80;13.00;;;18.10;48.50;;;;;;4966915;28;100433;-69
2022/03/24 09:10:05;;;;;;;17.58;13.10;;;18.10;48.40;;;;;;4967209;28;100615;-68
2022/03/24 09:12:31;;;;;;;16.13;13.60;;;18.10;48.40;;;;;;4966486;28;98924;-69
2022/03/24 09:14:57;;;;;;;16.90;13.93;;;18.10;48.40;;;;;;4967136;28;98679;-69
2022/03/24 09:17:23;;;;;;;16.13;12.65;;;18.10;48.40;;;;;;4965744;28;100405;-70
2022/03/24 09:19:48;;;;;;;16.63;13.48;;;18.20;48.40;;;;;;4965404;28;99000;-69
2022/03/24 09:22:14;;;;;;;18.98;13.65;;;18.20;48.50;;;;;;4967419;28;99151;-69
2022/03/24 09:24:39;;;;;;;18.95;14.02;;;18.20;48.30;;;;;;4967867;28;98241;-69
2022/03/24 09:27:05;;;;;;;17.05;14.23;;;18.20;48.30;;;;;;4966965;28;100909;-69
2022/03/24 09:29:31;;;;;;;16.73;13.43;;;18.20;48.20;;;;;;4967447;28;100243;-70
2022/03/24 09:31:57;;;;;;;16.77;13.93;;;18.20;48.20;;;;;;4966664;28;100904;-70
2022/03/24 09:34:25;;;;;;;16.73;13.60;;;18.20;48.20;;;;;;4967306;28;99139;-71
2022/03/24 09:36:50;;;;;;;17.33;13.55;;;18.20;48.20;;;;;;4966803;28;99721;-70
2022/03/24 09:39:16;;;;;;;17.45;14.02;;;18.20;48.20;;;;;;4966491;28;99282;-70
2022/03/24 09:41:47;;;;;;;16.42;13.30;;;18.20;48.10;;;;;;4966668;28;99075;-69
2022/03/24 09:44:14;;;;;;;18.15;13.85;;;18.30;48.10;;;;;;4966560;28;99055;-70
2022/03/24 09:46:41;;;;;;;17.60;12.52;;;18.30;48.10;;;;;;4966651;28;99205;-70
2022/03/24 09:49:10;;;;;;;17.63;14.00;;;18.30;48.10;;;;;;4966696;28;99029;-71
2022/03/24 09:51:39;;;;;;;16.52;12.90;;;18.30;48.00;;;;;;4966703;28;98516;-70
2022/03/24 09:54:07;;;;;;;17.08;13.05;;;18.30;48.10;;;;;;4966967;28;98694;-71
2022/03/24 09:56:32;;;;;;;17.17;12.90;;;18.30;48.00;;;;;;4965736;28;100171;-70
2022/03/24 09:58:59;;;;;;;16.73;12.98;;;18.40;48.00;;;;;;4967203;28;101308;-71
2022/03/24 10:01:24;;;;;;;16.25;12.73;;;18.40;48.00;;;;;;4966944;28;98785;-69
2022/03/24 10:04:08;;;;;;;17.20;13.02;;;18.40;48.00;;;;;;4967745;28;98574;-70
2022/03/24 10:06:35;;;;;;;17.48;12.32;;;18.40;47.90;;;;;;4965194;28;100367;-69
2022/03/24 10:09:03;;;;;;;17.75;12.52;;;18.40;47.90;;;;;;4966921;28;99377;-69
2022/03/24 10:11:29;;;;;;;15.77;12.35;;;18.40;47.80;;;;;;4969654;28;98582;-69
2022/03/24 10:13:58;;;;;;;14.88;12.20;;;18.40;47.80;;;;;;4969290;28;97850;-69
2022/03/24 10:16:41;;;;;;;15.13;11.68;;;18.40;47.80;;;;;;4966304;28;100834;-69
2022/03/24 10:19:09;;;;;;;16.13;12.15;;;18.40;47.80;;;;;;4965498;28;100036;-69
2022/03/24 10:21:40;;;;;;;15.45;11.93;;;18.40;47.70;;;;;;4965837;28;99384;-70
2022/03/24 10:24:17;;;;;;;15.63;12.68;;;18.50;47.70;;;;;;4967130;28;98596;-69
2022/03/24 10:27:00;;;;;;;14.10;11.80;;;18.50;47.70;;;;;;4969567;28;100976;-69
2022/03/24 10:29:27;;;;;;;15.38;11.85;;;18.50;47.70;;;;;;4969368;28;100021;-70
2022/03/24 10:31:55;;;;;;;13.50;11.50;;;18.50;47.70;;;;;;4968946;28;100340;-70
2022/03/24 10:34:32;;;;;;;14.65;12.18;;;18.50;47.60;;;;;;4968707;28;100451;-70
2022/03/24 10:37:03;;;;;;;17.33;11.48;;;18.50;47.50;;;;;;4967953;28;101667;-69
2022/03/24 10:39:29;;;;;;;15.45;11.25;;;18.50;47.60;;;;;;4968449;28;100290;-69
2022/03/24 10:42:16;;;;;;;15.45;11.60;;;18.50;47.50;;;;;;4969557;28;98905;-70
2022/03/24 10:45:04;;;;;;;14.88;11.55;;;18.50;47.50;;;;;;4951835;28;98631;-69
2022/03/24 10:47:44;;;;;;;13.43;10.82;;;18.50;47.50;;;;;;4968623;28;99895;-68
2022/03/24 10:50:29;;;;;;;13.73;11.43;;;18.50;47.50;;;;;;4969278;28;100607;-69
2022/03/24 10:53:01;;;;;;;15.30;11.50;;;18.50;47.50;;;;;;4969303;28;98624;-70
2022/03/24 10:55:45;;;;;;;13.93;11.33;;;18.60;47.50;;;;;;4969101;28;98751;-69
2022/03/24 10:58:32;;;;;;;13.48;10.55;;;18.60;47.50;;;;;;4968961;28;100430;-69
2022/03/24 11:01:03;;;;;;;13.20;10.57;;;18.50;47.50;;;;;;4969030;28;99962;-69
2022/03/24 11:03:29;;;;;;;13.60;10.52;;;18.60;47.50;;;;;;4968687;28;98594;-70
2022/03/24 11:06:05;;;;;;;12.90;10.68;;;18.60;47.60;;;;;;4969807;28;98213;-70
2022/03/24 11:08:32;;;;;;;15.45;11.02;;;18.60;47.50;;;;;;4968121;28;100221;-69
2022/03/24 11:10:57;;;;;;;13.05;10.48;;;18.60;47.50;;;;;;4968327;28;98873;-69
2022/03/24 11:13:39;;;;;;;12.98;10.77;;;18.60;47.50;;;;;;4967975;28;99510;-70
2022/03/24 11:16:05;;;;;;;14.02;11.32;;;18.60;47.40;;;;;;4969163;28;99056;-70
2022/03/24 11:18:32;;;;;;;14.32;10.52;;;18.60;47.40;;;;;;4967465;28;99331;-69
2022/03/24 11:21:06;;;;;;;11.43;9.65;;;18.60;47.30;;;;;;4967726;28;100134;-71
2022/03/24 11:23:39;;;;;;;13.20;10.10;;;18.60;47.30;;;;;;4968842;28;98857;-69
2022/03/24 11:26:07;;;;;;;12.40;11.02;;;18.60;47.30;;;;;;4968754;28;99116;-69
2022/03/24 11:28:35;;;;;;;11.88;10.57;;;18.60;47.40;;;;;;4968054;28;99265;-70
2022/03/24 11:31:07;;;;;;;14.20;10.52;;;18.60;47.40;;;;;;4968712;28;100820;-70
2022/03/24 11:33:39;;;;;;;12.75;10.27;;;18.60;47.40;;;;;;4968174;28;99168;-70
2022/03/24 11:36:07;;;;;;;12.40;10.18;;;18.60;47.30;;;;;;4968924;28;99031;-70
2022/03/24 11:38:33;;;;;;;13.27;10.13;;;18.60;47.40;;;;;;4966894;28;100877;-70
2022/03/24 11:41:06;;;;;;;15.02;9.93;;;18.60;47.30;;;;;;4968150;28;100639;-70
2022/03/24 11:43:34;;;;;;;11.50;10.10;;;18.60;47.30;;;;;;4969093;28;99090;-70
2022/03/24 11:46:08;;;;;;;12.90;9.68;;;18.60;47.30;;;;;;4968215;28;98557;-70
2022/03/24 11:48:39;;;;;;;11.68;9.93;;;18.60;47.30;;;;;;4968887;28;99232;-71
2022/03/24 11:51:25;;;;;;;12.50;10.23;;;18.60;47.40;;;;;;4968596;28;99793;-71
2022/03/24 11:54:06;;;;;;;13.43;9.88;;;18.60;47.30;;;;;;4969734;28;99060;-69
2022/03/24 11:56:32;;;;;;;12.77;9.90;;;18.60;47.40;;;;;;4975809;28;97736;-69
2022/03/24 11:58:57;;;;;;;11.27;9.55;;;18.60;47.40;;;;;;4969138;28;100445;-69
2022/03/24 12:01:26;;;;;;;12.15;10.57;;;18.60;47.40;;;;;;4969331;28;99908;-70
2022/03/24 12:04:09;;;;;;;11.35;9.52;;;18.60;47.40;;;;;;4968508;28;99326;-70
2022/03/24 12:06:41;;;;;;;11.23;9.48;;;18.70;47.40;;;;;;4969779;28;99093;-69
2022/03/24 12:09:09;;;;;;;10.00;8.73;;;18.60;47.30;;;;;;4969242;28;101289;-69
2022/03/24 12:11:42;;;;;;;13.07;9.75;;;18.60;47.30;;;;;;4969922;28;98854;-70
2022/03/24 12:14:11;;;;;;;12.43;9.73;;;18.70;47.50;;;;;;4969651;28;99197;-70
2022/03/24 12:16:39;;;;;;;14.05;9.73;;;18.70;47.40;;;;;;4969351;28;98606;-69
2022/03/24 12:19:08;;;;;;;11.45;9.48;;;18.70;47.50;;;;;;4968799;28;99717;-69
2022/03/24 12:21:34;;;;;;;10.35;8.98;;;18.60;47.50;;;;;;4951162;28;100085;-69
2022/03/24 12:24:06;;;;;;;11.93;9.07;;;18.60;47.40;;;;;;4969804;28;99906;-69
2022/03/24 12:26:40;;;;;;;10.60;9.10;;;18.70;47.50;;;;;;4968820;28;98999;-70
2022/03/24 12:29:11;;;;;;;11.38;9.45;;;18.60;47.40;;;;;;4968390;28;100109;-69
2022/03/24 12:31:56;;;;;;;11.23;9.43;;;18.60;47.50;;;;;;4967967;28;99604;-70
2022/03/24 12:34:45;;;;;;;14.23;9.93;;;18.70;47.50;;;;;;4968619;28;100285;-69
2022/03/24 12:37:22;;;;;;;12.55;9.40;;;18.70;47.50;;;;;;4968926;28;98968;-70
2022/03/24 12:39:49;;;;;;;12.30;9.15;;;18.70;47.50;;;;;;4969365;28;99692;-69
2022/03/24 12:42:15;;;;;;;11.73;9.50;;;18.70;47.50;;;;;;4968861;28;100364;-70
2022/03/24 12:44:58;;;;;;;11.52;9.25;;;18.70;47.50;;;;;;4969496;28;98594;-69
2022/03/24 12:47:43;;;;;;;11.70;9.20;;;18.70;47.50;;;;;;4968960;28;97875;-70
2022/03/24 12:50:28;;;;;;;11.50;9.93;;;18.70;47.50;;;;;;4969121;28;99395;-70
2022/03/24 12:52:56;;;;;;;11.23;8.80;;;18.70;47.60;;;;;;4949898;28;104908;-70
2022/03/24 12:55:32;;;;;;;11.13;8.65;;;18.70;47.60;;;;;;4968168;28;99832;-70
2022/03/24 12:58:01;;;;;;;11.57;9.60;;;18.70;47.60;;;;;;4969357;28;98950;-70
2022/03/24 13:00:32;;;;;;;13.02;9.15;;;18.70;47.60;;;;;;4967754;28;100281;-71
2022/03/24 13:03:01;;;;;;;11.93;9.27;;;18.70;47.60;;;;;;4968648;28;100104;-70
2022/03/24 13:05:30;;;;;;;11.30;8.43;;;18.70;47.60;;;;;;4967739;28;98662;-70
2022/03/24 13:07:57;;;;;;;11.32;9.40;;;18.70;47.60;;;;;;4968764;28;98523;-70
2022/03/24 13:10:24;;;;;;;11.52;8.93;;;18.70;47.50;;;;;;4967750;28;99678;-70
2022/03/24 13:12:56;;;;;;;12.20;9.63;;;18.70;47.60;;;;;;4969776;28;99873;-70
2022/03/24 13:15:42;;;;;;;15.60;10.32;;;18.70;47.60;;;;;;4968178;28;98903;-71
2022/03/24 13:18:13;;;;;;;11.18;9.23;;;18.70;47.50;;;;;;4967753;28;99221;-70
2022/03/24 13:20:42;;;;;;;10.27;8.95;;;18.70;47.60;;;;;;4967976;28;100890;-70
2022/03/24 13:23:10;;;;;;;10.63;9.43;;;18.70;47.60;;;;;;4968677;28;99544;-69
2022/03/24 13:25:37;;;;;;;12.50;9.15;;;18.80;47.60;;;;;;4969629;28;98572;-70
2022/03/24 13:28:04;;;;;;;10.35;8.88;;;18.80;47.60;;;;;;4968591;28;99297;-70
2022/03/24 13:30:32;;;;;;;10.82;9.18;;;18.80;47.60;;;;;;4969333;28;100747;-70
2022/03/24 13:33:03;;;;;;;10.40;9.15;;;18.80;47.60;;;;;;4968538;28;99033;-70
2022/03/24 13:35:35;;;;;;;11.35;9.55;;;18.80;47.60;;;;;;4969115;28;98593;-70
2022/03/24 13:38:03;;;;;;;12.25;9.90;;;18.80;47.60;;;;;;4970105;28;97767;-68
2022/03/24 13:40:34;;;;;;;12.32;9.43;;;18.80;47.50;;;;;;4969768;28;100290;-70
2022/03/24 13:43:02;;;;;;;9.95;8.77;;;18.80;47.50;;;;;;4969425;28;100526;-69
2022/03/24 13:45:28;;;;;;;11.23;9.13;;;18.80;47.50;;;;;;4968030;28;99709;-70
2022/03/24 13:47:56;;;;;;;11.43;9.50;;;18.80;47.50;;;;;;4969118;28;98668;-70